Time;durP1;ratioP1;P1;durP2;ratioP2;P2;SDS_P1;SDS_P2;PMS_P1;PMS_P2;Temp;Humidity;BMP_temperature;BMP_pressure;BME280_temperature;BME280_humidity;BME280_pressure;Samples;Min_cycle;Max_cycle;Signal;HPM_P1;HPM_P2
2023/11/26 00:01:34;;;;;;;;;16.75;15.25;;;;;8.38;62.64;101588.94;5098903;27;45317;-65
2023/11/26 00:03:59;;;;;;;;;23.25;20.75;;;;;8.46;63.05;101597.75;5098984;27;45436;-64
2023/11/26 00:06:25;;;;;;;;;17.50;15.50;;;;;8.41;62.86;101593.34;5097725;27;45333;-65
2023/11/26 00:08:50;;;;;;;;;15.75;14.00;;;;;8.41;63.05;101596.88;5098115;27;58425;-64
2023/11/26 00:11:15;;;;;;;;;21.25;18.25;;;;;8.42;62.54;101600.41;5099009;27;45308;-65
2023/11/26 00:13:41;;;;;;;;;18.50;13.25;;;;;8.34;62.74;101592.53;5098779;27;45357;-64
2023/11/26 00:16:06;;;;;;;;;20.75;19.00;;;;;8.41;62.81;101599.53;5098983;27;45408;-65
2023/11/26 00:18:31;;;;;;;;;28.75;23.50;;;;;8.42;62.97;101614.63;5097618;27;45451;-65
2023/11/26 00:20:57;;;;;;;;;30.25;28.75;;;;;8.34;63.19;101596.06;5098401;27;45551;-65
2023/11/26 00:23:22;;;;;;;;;31.25;27.75;;;;;8.11;63.08;101559.03;5098577;27;45517;-64
2023/11/26 00:25:48;;;;;;;;;34.00;28.25;;;;;8.42;63.35;101611.97;5097337;27;45892;-64
2023/11/26 00:28:13;;;;;;;;;27.00;25.25;;;;;8.37;62.94;101603.16;5100441;27;45364;-65
2023/11/26 00:30:38;;;;;;;;;31.00;28.75;;;;;8.28;62.95;101587.25;5099711;27;57598;-65
2023/11/26 00:33:04;;;;;;;;;35.33;33.00;;;;;8.41;63.11;101602.19;5100943;27;69693;-65
2023/11/26 00:35:29;;;;;;;;;31.00;28.25;;;;;8.32;63.38;101595.19;5101850;27;45352;-64
2023/11/26 00:37:54;;;;;;;;;31.75;27.50;;;;;8.39;63.17;101598.69;5101839;27;45586;-64
2023/11/26 00:40:24;;;;;;;;;35.25;28.75;;;;;8.30;63.26;101581.03;5101602;27;45341;-65
2023/11/26 00:42:50;;;;;;;;;35.50;30.50;;;;;8.23;63.47;101581.97;5100448;27;47009;-65
2023/11/26 00:45:15;;;;;;;;;33.75;32.25;;;;;8.25;63.43;101579.28;5101977;27;45324;-64
2023/11/26 00:47:40;;;;;;;;;33.00;30.25;;;;;8.32;63.35;101597.00;5101754;27;45514;-64
2023/11/26 00:50:08;;;;;;;;;37.75;29.00;;;;;8.31;63.20;101593.41;5100816;27;60969;-64
2023/11/26 00:52:33;;;;;;;;;27.75;24.25;;;;;8.18;63.32;101577.59;5101861;27;46352;-64
2023/11/26 00:54:59;;;;;;;;;36.00;30.75;;;;;8.20;63.38;101589.09;5101208;27;64175;-64
2023/11/26 00:57:24;;;;;;;;;33.25;29.50;;;;;8.11;63.76;101579.44;5087911;27;45374;-65
2023/11/26 00:59:49;;;;;;;;;32.75;32.00;;;;;8.02;63.90;101567.09;5100157;27;45484;-65
2023/11/26 01:02:15;;;;;;;;;38.00;36.00;;;;;8.12;63.44;101583.88;5100113;27;50759;-65
2023/11/26 01:04:40;;;;;;;;;35.75;27.00;;;;;8.18;63.69;101588.25;5100391;27;45395;-65
2023/11/26 01:07:05;;;;;;;;;37.33;30.33;;;;;8.14;63.67;101588.25;5099553;27;65481;-65
2023/11/26 01:09:31;;;;;;;;;36.50;33.25;;;;;8.03;63.59;101562.66;5101247;27;45556;-65
2023/11/26 01:11:56;;;;;;;;;33.00;31.25;;;;;8.00;63.67;101579.50;5101021;27;51631;-64
2023/11/26 01:14:21;;;;;;;;;31.75;29.50;;;;;8.08;63.74;101595.41;5100343;27;45339;-64
2023/11/26 01:16:49;;;;;;;;;29.00;27.25;;;;;8.06;63.51;101587.44;5101466;27;45384;-65
2023/11/26 01:19:15;;;;;;;;;37.75;30.00;;;;;8.04;63.80;101583.03;5099863;27;45381;-65
2023/11/26 01:21:40;;;;;;;;;30.00;28.00;;;;;7.96;63.69;101569.81;5100790;27;46121;-65
2023/11/26 01:24:06;;;;;;;;;28.00;27.00;;;;;8.06;63.83;101592.75;5101556;27;45301;-64
2023/11/26 01:26:32;;;;;;;;;32.00;31.50;;;;;8.02;63.92;101593.69;5101238;27;45435;-65
2023/11/26 01:28:57;;;;;;;;;27.00;26.50;;;;;8.01;64.07;101599.91;5099625;27;45420;-64
2023/11/26 01:31:22;;;;;;;;;36.25;31.50;;;;;7.91;64.09;101579.59;5100998;27;45324;-65
2023/11/26 01:33:48;;;;;;;;;36.25;32.00;;;;;7.83;64.34;101578.78;5099304;27;61727;-65
2023/11/26 01:36:13;;;;;;;;;27.75;27.75;;;;;7.81;63.99;101572.59;5099536;27;45458;-65
2023/11/26 01:38:38;;;;;;;;;34.75;31.00;;;;;7.80;64.13;101566.38;5098973;27;45418;-64
2023/11/26 01:41:04;;;;;;;;;32.00;31.00;;;;;7.83;64.10;101573.47;5100760;27;47000;-65
2023/11/26 01:43:29;;;;;;;;;32.25;30.00;;;;;7.85;64.29;101576.97;5101054;27;45385;-65
2023/11/26 01:46:07;;;;;;;;;32.00;28.25;;;;;7.87;64.38;101588.47;5100957;27;45405;-65
2023/11/26 01:48:34;;;;;;;;;35.00;31.50;;;;;7.77;64.26;101583.25;5111512;27;46012;-64
2023/11/26 01:51:00;;;;;;;;;37.00;31.50;;;;;7.73;64.08;101573.50;5100337;27;46171;-65
2023/11/26 01:53:26;;;;;;;;;29.00;27.00;;;;;7.83;64.60;101592.06;5101016;27;45758;-65
2023/11/26 01:55:52;;;;;;;;;35.00;27.75;;;;;7.68;64.57;101572.66;5098061;27;45610;-65
2023/11/26 01:58:18;;;;;;;;;32.75;29.75;;;;;7.83;64.65;101600.91;5088692;27;45579;-65
2023/11/26 02:00:44;;;;;;;;;37.50;32.75;;;;;7.66;64.66;101573.59;5099647;27;46140;-64
2023/11/26 02:03:11;;;;;;;;;35.50;32.00;;;;;7.79;64.52;101592.09;5100686;27;45444;-65
2023/11/26 02:05:37;;;;;;;;;33.25;31.75;;;;;7.68;64.84;101563.81;5098770;27;45429;-65
2023/11/26 02:08:02;;;;;;;;;38.75;31.50;;;;;7.69;64.72;101571.78;5100603;27;45473;-65
2023/11/26 02:10:27;;;;;;;;;43.75;35.75;;;;;7.76;64.32;101584.13;5100341;27;45347;-65
2023/11/26 02:13:03;;;;;;;;;40.25;37.25;;;;;7.69;64.45;101584.19;5100305;27;45484;-65
2023/11/26 02:15:29;;;;;;;;;45.00;38.50;;;;;7.64;64.75;101578.91;5099325;27;45406;-65
2023/11/26 02:17:55;;;;;;;;;36.50;31.50;;;;;7.60;64.67;101574.50;5100699;27;45408;-65
2023/11/26 02:20:22;;;;;;;;;38.25;34.75;;;;;7.75;64.87;101600.09;5099773;27;45831;-64
2023/11/26 02:22:48;;;;;;;;;36.25;34.50;;;;;7.74;64.60;101601.88;5100264;27;45412;-65
2023/11/26 02:25:13;;;;;;;;;32.25;26.75;;;;;7.68;64.60;101596.59;5100225;27;45421;-65
2023/11/26 02:27:39;;;;;;;;;34.00;31.00;;;;;7.68;65.06;101595.72;5100216;27;45413;-64
2023/11/26 02:30:05;;;;;;;;;35.50;33.75;;;;;7.64;64.46;101596.63;5098059;27;49589;-65
2023/11/26 02:32:30;;;;;;;;;34.25;31.25;;;;;7.51;64.69;101566.59;5099977;27;45439;-65
2023/11/26 02:34:55;;;;;;;;;38.00;32.00;;;;;7.64;64.71;101594.84;5100042;27;45459;-65
2023/11/26 02:37:21;;;;;;;;;35.00;33.00;;;;;7.59;64.77;101594.00;5100199;27;45382;-65
2023/11/26 02:39:47;;;;;;;;;37.75;32.50;;;;;7.61;64.75;101594.88;5099729;27;45448;-65
2023/11/26 02:42:12;;;;;;;;;31.50;29.50;;;;;7.61;64.95;101590.44;5099927;27;45297;-65
2023/11/26 02:44:37;;;;;;;;;30.50;30.00;;;;;7.61;64.82;101589.56;5099865;27;45350;-65
2023/11/26 02:47:03;;;;;;;;;39.25;32.50;;;;;7.56;64.43;101588.69;5099253;27;45325;-65
2023/11/26 02:49:29;;;;;;;;;36.50;32.50;;;;;7.61;64.90;101592.22;5099440;27;45694;-65
2023/11/26 02:51:54;;;;;;;;;35.25;29.75;;;;;7.58;64.36;101601.09;5099178;27;45337;-65
2023/11/26 02:54:19;;;;;;;;;30.75;28.75;;;;;7.46;64.78;101585.22;5099926;27;45898;-65
2023/11/26 02:56:45;;;;;;;;;35.75;32.25;;;;;7.37;64.95;101578.19;5089563;27;45492;-65
2023/11/26 02:59:11;;;;;;;;;36.50;36.00;;;;;7.48;64.64;101598.50;5093796;27;46626;-65
2023/11/26 03:01:37;;;;;;;;;36.50;32.75;;;;;7.40;65.15;101585.25;5098797;27;45437;-64
2023/11/26 03:04:02;;;;;;;;;37.75;30.50;;;;;7.28;65.13;101575.56;5099767;27;45397;-65
2023/11/26 03:06:27;;;;;;;;;41.25;36.50;;;;;7.32;64.95;101587.09;5099483;27;45383;-65
2023/11/26 03:09:37;;;;;;;;;23.50;23.50;;;;;7.32;65.09;101574.69;5099409;27;46784;-65
2023/11/26 03:14:41;;;;;;;;;30.25;28.75;;;;;7.34;65.08;101574.69;5099932;27;45401;-65
2023/11/26 03:17:06;;;;;;;;;32.50;27.25;;;;;7.39;65.24;101589.69;5099418;27;45267;-65
2023/11/26 03:19:32;;;;;;;;;30.00;26.50;;;;;7.37;65.18;101588.81;5097716;27;45998;-65
2023/11/26 03:21:59;;;;;;;;;29.25;26.75;;;;;7.30;65.06;101563.19;5098763;27;45454;-65
2023/11/26 03:24:24;;;;;;;;;28.25;26.50;;;;;7.25;65.17;101554.38;5099663;27;45450;-65
2023/11/26 03:26:50;;;;;;;;;33.00;27.75;;;;;7.31;64.98;101574.69;5099179;27;45355;-65
2023/11/26 03:29:15;;;;;;;;;25.75;21.25;;;;;7.38;65.64;101589.69;5106305;27;47351;-65
2023/11/26 03:31:41;;;;;;;;;28.25;24.00;;;;;7.38;65.44;101589.69;5098138;27;45443;-65
2023/11/26 03:34:08;;;;;;;;;27.75;24.75;;;;;7.36;65.22;101583.50;5099511;27;45319;-65
2023/11/26 03:36:37;;;;;;;;;28.75;25.75;;;;;7.22;65.57;101559.69;5099009;27;45313;-64
2023/11/26 03:39:03;;;;;;;;;23.75;23.75;;;;;7.34;65.54;101580.00;5099297;27;46904;-64
2023/11/26 03:41:29;;;;;;;;;30.75;25.75;;;;;7.34;65.53;101580.84;5098853;27;45354;-65
2023/11/26 03:43:55;;;;;;;;;23.00;21.50;;;;;7.23;65.45;101561.44;5099511;27;45421;-65
2023/11/26 03:46:20;;;;;;;;;30.50;25.00;;;;;7.27;65.79;101568.50;5099019;27;45448;-64
2023/11/26 03:48:46;;;;;;;;;25.50;24.00;;;;;7.29;65.84;101577.34;5097658;27;45929;-65
2023/11/26 03:51:18;;;;;;;;;25.75;22.75;;;;;7.13;65.64;101538.47;5097953;27;45535;-65
2023/11/26 03:53:44;;;;;;;;;23.50;21.00;;;;;7.32;65.79;101576.47;5099314;27;45383;-65
2023/11/26 03:56:09;;;;;;;;;25.50;25.50;;;;;7.31;65.68;101580.88;5093774;27;45729;-65
2023/11/26 03:58:35;;;;;;;;;26.50;24.00;;;;;7.29;65.95;101589.75;5089425;27;45989;-64
2023/11/26 04:01:02;;;;;;;;;20.50;19.25;;;;;7.20;65.66;101572.97;5098775;27;45464;-65
2023/11/26 04:03:28;;;;;;;;;24.75;23.75;;;;;7.21;65.58;101560.56;5101436;27;45371;-65
2023/11/26 04:05:53;;;;;;;;;21.00;20.75;;;;;7.19;65.50;101570.31;5102203;27;45448;-64
2023/11/26 04:08:18;;;;;;;;;20.50;20.00;;;;;7.19;65.85;101571.19;5102623;27;45565;-64
2023/11/26 04:10:44;;;;;;;;;22.50;20.00;;;;;7.14;65.71;101561.50;5102328;27;45323;-65
2023/11/26 04:13:10;;;;;;;;;21.75;21.25;;;;;7.12;65.81;101558.84;5101766;27;57565;-64
2023/11/26 04:15:43;;;;;;;;;21.50;20.75;;;;;6.99;65.81;101542.09;5102358;27;46750;-65
2023/11/26 04:18:09;;;;;;;;;20.25;20.00;;;;;7.17;66.09;101572.13;5100892;27;46957;-64
2023/11/26 04:20:34;;;;;;;;;21.00;19.00;;;;;7.15;66.01;101572.13;5099865;27;45412;-64
2023/11/26 04:23:00;;;;;;;;;18.75;17.50;;;;;7.14;65.98;101575.66;5102016;27;45199;-65
2023/11/26 04:25:25;;;;;;;;;16.75;16.00;;;;;7.14;66.28;101575.66;5100778;27;47855;-64
2023/11/26 04:27:50;;;;;;;;;23.50;20.00;;;;;7.15;66.14;101568.56;5101259;27;65983;-64
2023/11/26 04:30:17;;;;;;;;;19.75;17.00;;;;;7.00;65.93;101541.22;5099280;27;45542;-64
2023/11/26 04:32:42;;;;;;;;;21.75;17.25;;;;;7.05;66.01;101558.00;5102294;27;45485;-64
2023/11/26 04:35:08;;;;;;;;;18.75;15.00;;;;;7.00;65.98;101554.50;5101951;27;45565;-65
2023/11/26 04:37:34;;;;;;;;;18.75;16.00;;;;;6.79;66.05;101520.06;5102104;27;45549;-65
2023/11/26 04:39:59;;;;;;;;;16.75;15.25;;;;;7.10;66.15;101559.72;5098268;27;45417;-65
2023/11/26 04:42:25;;;;;;;;;17.00;15.25;;;;;7.09;65.79;101560.66;5100933;27;46070;-65
2023/11/26 04:44:50;;;;;;;;;18.75;16.00;;;;;6.96;66.05;101541.22;5101887;27;45346;-65
2023/11/26 04:47:15;;;;;;;;;18.00;17.00;;;;;7.07;66.13;101555.34;5100503;27;46482;-65
2023/11/26 04:49:41;;;;;;;;;16.75;14.00;;;;;7.00;65.84;101557.13;5100265;27;45392;-65
2023/11/26 04:52:06;;;;;;;;;11.50;11.00;;;;;7.00;65.86;101564.19;5101885;27;45419;-65
2023/11/26 04:54:31;;;;;;;;;16.00;15.00;;;;;7.07;66.04;101573.00;5101966;27;45528;-64
2023/11/26 04:56:57;;;;;;;;;20.00;17.25;;;;;6.96;65.86;101554.50;5089700;27;46041;-64
2023/11/26 04:59:23;;;;;;;;;14.00;14.00;;;;;7.00;65.98;101567.75;5099857;27;45267;-64
2023/11/26 05:01:54;;;;;;;;;15.00;13.50;;;;;6.99;66.08;101558.00;5101815;27;45369;-65
2023/11/26 05:04:19;;;;;;;;;14.25;14.25;;;;;6.97;66.24;101559.81;5101343;27;45397;-65
2023/11/26 05:06:45;;;;;;;;;23.75;17.50;;;;;6.99;66.13;101557.16;5101543;27;47356;-65
2023/11/26 05:09:11;;;;;;;;;19.25;17.00;;;;;6.95;66.23;101552.72;5101265;27;45380;-65
2023/11/26 05:11:44;;;;;;;;;21.50;17.00;;;;;7.09;66.11;101576.56;5101642;27;45430;-64
2023/11/26 05:14:10;;;;;;;;;18.50;17.25;;;;;7.03;65.99;101564.19;5100941;27;45352;-64
2023/11/26 05:16:36;;;;;;;;;21.75;19.00;;;;;6.89;66.56;101547.47;5101306;27;47094;-65
2023/11/26 05:19:01;;;;;;;;;12.25;11.75;;;;;6.88;66.33;101554.53;5098650;27;45397;-65
2023/11/26 05:21:27;;;;;;;;;28.00;17.25;;;;;6.89;66.48;101572.22;5101000;27;45416;-64
2023/11/26 05:23:53;;;;;;;;;18.50;16.50;;;;;6.85;66.27;101566.03;5091933;27;45521;-65
2023/11/26 05:26:18;;;;;;;;;17.50;15.25;;;;;6.58;66.60;101524.59;5095700;27;45491;-65
2023/11/26 05:28:43;;;;;;;;;15.50;14.00;;;;;6.51;66.62;101530.78;5098789;27;51369;-64
2023/11/26 05:31:11;;;;;;;;;18.50;15.50;;;;;6.67;66.89;101563.47;5101166;27;45352;-64
2023/11/26 05:33:36;;;;;;;;;17.25;14.50;;;;;6.63;67.02;101562.59;5101469;27;45471;-64
2023/11/26 05:36:04;;;;;;;;;21.75;20.75;;;;;6.57;67.27;101554.63;5099426;27;46238;-64
2023/11/26 05:38:30;;;;;;;;;15.25;15.25;;;;;6.72;67.09;101579.38;5100987;27;45289;-65
2023/11/26 05:40:55;;;;;;;;;16.00;15.50;;;;;6.57;67.44;101559.06;5100448;27;56547;-65
2023/11/26 05:43:20;;;;;;;;;14.50;12.50;;;;;6.73;67.04;101579.34;5100529;27;59846;-64
2023/11/26 05:45:45;;;;;;;;;16.25;13.25;;;;;6.71;66.83;101567.84;5085498;27;60794;-64
2023/11/26 05:48:11;;;;;;;;;15.25;14.25;;;;;6.70;66.98;101557.25;5100183;27;45443;-65
2023/11/26 05:50:36;;;;;;;;;17.25;16.00;;;;;6.83;66.77;101564.28;5098886;27;45389;-64
2023/11/26 05:53:02;;;;;;;;;16.00;12.25;;;;;6.72;66.94;101550.19;5100629;27;52542;-64
2023/11/26 05:55:27;;;;;;;;;19.25;14.00;;;;;6.77;67.17;101556.34;5100887;27;46161;-64
2023/11/26 05:57:53;;;;;;;;;19.50;15.25;;;;;6.77;66.77;101553.69;5086404;27;64395;-65
2023/11/26 06:00:18;;;;;;;;;15.25;14.00;;;;;6.68;67.32;101544.88;5100302;27;50107;-64
2023/11/26 06:02:44;;;;;;;;;17.25;14.00;;;;;6.75;67.21;101552.81;5100889;27;45596;-65
2023/11/26 06:05:09;;;;;;;;;16.00;15.50;;;;;6.83;67.57;101570.47;5100631;27;45346;-64
2023/11/26 06:07:35;;;;;;;;;13.25;12.00;;;;;6.68;66.87;101539.56;5099429;27;45349;-65
2023/11/26 06:10:00;;;;;;;;;16.75;15.00;;;;;6.83;67.47;101566.94;5100138;27;51661;-64
2023/11/26 06:12:25;;;;;;;;;16.00;15.00;;;;;6.79;67.36;101558.09;5100821;27;45239;-65
2023/11/26 06:14:51;;;;;;;;;17.50;12.00;;;;;6.72;67.09;101552.84;5099256;27;46227;-64
2023/11/26 06:17:16;;;;;;;;;14.25;12.00;;;;;6.84;67.51;101576.66;5081158;27;45633;-64
2023/11/26 06:19:41;;;;;;;;;14.50;11.50;;;;;6.77;67.46;101573.16;5099870;27;45314;-64
2023/11/26 06:22:07;;;;;;;;;15.50;12.00;;;;;6.73;67.17;101563.41;5100122;27;45247;-65
2023/11/26 06:24:33;;;;;;;;;20.00;16.00;;;;;6.72;67.28;101566.09;5099764;27;46455;-64
2023/11/26 06:26:58;;;;;;;;;16.00;15.00;;;;;6.75;67.74;101582.00;5099967;27;45429;-65
2023/11/26 06:29:24;;;;;;;;;13.50;11.75;;;;;6.60;67.20;101559.94;5099118;27;45411;-65
2023/11/26 06:31:49;;;;;;;;;15.75;14.25;;;;;6.69;67.76;101590.88;5100161;27;45564;-65
2023/11/26 06:34:14;;;;;;;;;16.75;12.25;;;;;6.59;67.93;101578.50;5097683;27;74083;-65
2023/11/26 06:36:39;;;;;;;;;17.50;16.75;;;;;6.62;67.76;101584.69;5100017;27;45441;-65
2023/11/26 06:39:08;;;;;;;;;13.25;13.25;;;;;6.48;67.94;101558.22;5099645;27;55678;-64
2023/11/26 06:41:41;;;;;;;;;12.50;12.50;;;;;6.64;68.27;101587.34;5099972;27;45313;-65
2023/11/26 06:44:06;;;;;;;;;15.00;14.00;;;;;6.54;67.91;101585.59;5100058;27;46385;-64
2023/11/26 06:46:32;;;;;;;;;16.50;11.50;;;;;6.42;68.34;101566.16;5100200;27;45380;-64
2023/11/26 06:48:57;;;;;;;;;14.00;12.25;;;;;6.48;68.09;101589.13;5098912;27;45448;-64
2023/11/26 06:51:23;;;;;;;;;17.75;17.50;;;;;6.39;67.98;101576.78;5097337;27;56676;-65
2023/11/26 06:53:52;;;;;;;;;17.25;14.25;;;;;6.43;67.73;101567.03;5099749;27;46063;-65
2023/11/26 06:56:18;;;;;;;;;14.50;14.50;;;;;6.45;68.18;101578.56;5093395;27;45371;-65
2023/11/26 06:58:44;;;;;;;;;14.50;14.25;;;;;6.38;68.64;101574.13;5092829;27;46013;-65
2023/11/26 07:01:11;;;;;;;;;20.25;18.25;;;;;6.34;68.06;101572.38;5099771;27;45555;-65
2023/11/26 07:03:37;;;;;;;;;16.75;15.00;;;;;6.42;68.02;101583.84;5099677;27;46139;-65
2023/11/26 07:06:08;;;;;;;;;2.75;0.00;;;;;6.40;68.62;101590.91;5099857;27;45313;-64
2023/11/26 07:08:34;;;;;;;;;20.25;17.25;;;;;6.27;68.50;101569.72;5099519;27;45436;-65
2023/11/26 07:10:59;;;;;;;;;18.00;14.50;;;;;6.30;69.04;101569.72;5091228;27;45433;-65
2023/11/26 07:13:25;;;;;;;;;18.50;17.75;;;;;6.35;68.56;101568.81;5096645;27;45851;-65
2023/11/26 07:15:51;;;;;;;;;15.25;14.00;;;;;6.44;68.86;101582.06;5098412;27;45355;-65
2023/11/26 07:18:16;;;;;;;;;19.75;17.75;;;;;6.28;68.53;101558.25;5098151;27;45373;-64
2023/11/26 07:20:42;;;;;;;;;17.25;15.00;;;;;6.30;69.23;101553.81;5098197;27;45431;-64
2023/11/26 07:23:07;;;;;;;;;17.75;14.25;;;;;6.24;68.69;101548.50;5097164;27;48408;-65
2023/11/26 07:25:33;;;;;;;;;15.50;15.00;;;;;6.37;68.76;101569.72;5092308;27;45468;-64
2023/11/26 07:28:02;;;;;;;;;15.25;15.00;;;;;6.36;68.97;101570.59;5095770;27;45666;-64
2023/11/26 07:30:28;;;;;;;;;23.00;14.50;;;;;6.43;69.41;101585.59;5098329;27;45539;-64
2023/11/26 07:32:54;;;;;;;;;18.25;16.00;;;;;6.42;69.43;101582.06;5098257;27;47194;-64
2023/11/26 07:35:19;;;;;;;;;18.50;18.50;;;;;6.34;69.33;101567.06;5097300;27;45515;-64
2023/11/26 07:37:45;;;;;;;;;15.75;15.00;;;;;6.25;69.38;101563.56;5101302;27;45387;-64
2023/11/26 07:40:13;;;;;;;;;14.25;14.25;;;;;6.34;68.99;101573.25;5102403;27;45405;-65
2023/11/26 07:42:40;;;;;;;;;22.00;15.00;;;;;6.34;69.27;101588.28;5098968;27;46282;-63
2023/11/26 07:45:07;;;;;;;;;17.75;15.50;;;;;6.11;69.84;101554.72;5100392;27;45471;-64
2023/11/26 07:47:32;;;;;;;;;19.50;16.50;;;;;6.23;69.50;101588.28;5101830;27;45446;-64
2023/11/26 07:49:57;;;;;;;;;18.25;14.75;;;;;6.21;69.68;101596.22;5099864;27;53968;-63
2023/11/26 07:52:23;;;;;;;;;16.75;16.75;;;;;6.22;70.31;101595.38;5099782;27;46558;-64
2023/11/26 07:54:48;;;;;;;;;22.25;18.00;;;;;6.13;69.64;101582.09;5100709;27;47554;-63
2023/11/26 07:57:15;;;;;;;;;19.00;19.00;;;;;6.12;69.70;101593.59;5098975;27;47038;-64
2023/11/26 07:59:43;;;;;;;;;19.00;17.25;;;;;6.11;69.81;101582.13;5101492;27;45396;-64
2023/11/26 08:02:10;;;;;;;;;21.00;17.75;;;;;6.17;70.20;101612.16;5101921;27;45943;-64
2023/11/26 08:04:35;;;;;;;;;15.25;15.00;;;;;6.15;70.25;101595.34;5101110;27;45713;-64
2023/11/26 08:07:01;;;;;;;;;22.50;18.50;;;;;6.25;70.58;101607.75;5096758;27;45534;-64
2023/11/26 08:09:29;;;;;;;;;23.00;21.50;;;;;6.17;70.03;101589.19;5097163;27;45785;-64
2023/11/26 08:11:57;;;;;;;;;21.75;18.75;;;;;6.20;70.13;101590.94;5098157;27;46435;-64
2023/11/26 08:14:25;;;;;;;;;25.25;20.50;;;;;6.34;69.96;101609.50;5095282;27;46173;-64
2023/11/26 08:16:50;;;;;;;;;24.50;19.50;;;;;6.28;70.15;101598.03;5100343;27;45439;-64
2023/11/26 08:19:18;;;;;;;;;23.00;22.25;;;;;6.39;70.10;101611.25;5100202;27;60371;-64
2023/11/26 08:21:44;;;;;;;;;22.25;19.50;;;;;6.42;70.45;101610.38;5100812;27;46806;-64
2023/11/26 08:24:18;;;;;;;;;19.75;17.50;;;;;6.29;70.67;101586.50;5098788;27;45697;-64
2023/11/26 08:26:46;;;;;;;;;19.25;17.25;;;;;6.30;70.03;101582.97;5088288;27;45442;-64
2023/11/26 08:29:18;;;;;;;;;19.75;14.75;;;;;6.34;70.57;101583.84;5099244;27;45369;-64
2023/11/26 08:31:44;;;;;;;;;19.75;16.00;;;;;6.51;70.51;101609.47;5099708;27;47144;-64
2023/11/26 08:34:10;;;;;;;;;20.00;18.25;;;;;6.45;70.07;101605.06;5099703;27;46133;-64
2023/11/26 08:36:41;;;;;;;;;24.00;19.00;;;;;6.54;70.01;101620.97;5094501;27;45510;-64
2023/11/26 08:39:13;;;;;;;;;20.00;17.25;;;;;6.40;70.19;101599.78;5096946;27;45330;-65
2023/11/26 08:41:38;;;;;;;;;21.00;19.00;;;;;6.52;70.27;101622.75;5100792;27;45620;-65
2023/11/26 08:44:04;;;;;;;;;19.75;19.50;;;;;6.46;70.53;101606.81;5100823;27;45373;-65
2023/11/26 08:46:29;;;;;;;;;15.25;15.00;;;;;6.63;70.62;101626.25;5100835;27;45338;-64
2023/11/26 08:48:56;;;;;;;;;13.00;13.00;;;;;6.68;70.52;101626.22;5098723;27;45332;-64
2023/11/26 08:51:21;;;;;;;;;21.50;20.00;;;;;6.62;70.03;101605.03;5101595;27;45404;-65
2023/11/26 08:53:47;;;;;;;;;25.25;20.00;;;;;6.82;70.55;101623.56;5098910;27;45309;-65
2023/11/26 08:56:12;;;;;;;;;23.00;20.50;;;;;6.80;70.16;101615.59;5101356;27;49186;-64
2023/11/26 08:58:38;;;;;;;;;22.75;19.25;;;;;6.88;69.92;101622.66;5099952;27;45448;-64
2023/11/26 09:01:05;;;;;;;;;21.75;19.25;;;;;6.84;69.75;101616.47;5101449;27;45453;-64
2023/11/26 09:03:30;;;;;;;;;23.00;23.00;;;;;6.74;70.17;101594.38;5101852;27;45455;-64
2023/11/26 09:05:55;;;;;;;;;13.25;8.50;;;;;6.75;69.91;101603.22;5100324;27;45326;-64
2023/11/26 09:08:21;;;;;;;;;24.75;24.25;;;;;6.71;69.92;101605.00;5100686;27;45457;-64
2023/11/26 09:10:46;;;;;;;;;21.50;20.00;;;;;6.74;70.25;101610.31;5097375;27;55710;-64
2023/11/26 09:13:12;;;;;;;;;17.25;16.75;;;;;6.74;70.53;101614.75;5100216;27;46044;-64
2023/11/26 09:15:41;;;;;;;;;19.00;15.50;;;;;6.61;70.51;101596.19;5101555;27;45411;-64
2023/11/26 09:18:06;;;;;;;;;19.50;17.00;;;;;6.68;70.87;101599.69;5100330;27;45281;-64
2023/11/26 09:20:31;;;;;;;;;26.25;22.50;;;;;6.80;70.89;101614.69;5099329;27;45418;-64
2023/11/26 09:22:57;;;;;;;;;28.75;26.25;;;;;6.74;70.59;101607.66;5097441;27;45465;-64
2023/11/26 09:25:22;;;;;;;;;30.50;26.75;;;;;6.85;70.69;101620.91;5101227;27;45434;-64
2023/11/26 09:27:47;;;;;;;;;31.00;29.00;;;;;6.94;70.96;101620.00;5099927;27;45409;-64
2023/11/26 09:30:13;;;;;;;;;25.50;23.50;;;;;6.87;70.46;101603.19;5100027;27;45750;-64
2023/11/26 09:32:39;;;;;;;;;34.25;29.50;;;;;6.96;70.42;101612.91;5099409;27;55128;-64
2023/11/26 09:35:05;;;;;;;;;25.00;23.25;;;;;7.02;70.27;101615.53;5100275;27;45373;-64
2023/11/26 09:37:31;;;;;;;;;19.00;19.00;;;;;7.03;70.68;101619.94;5099979;27;45594;-64
2023/11/26 09:39:57;;;;;;;;;24.00;21.00;;;;;7.01;70.29;101609.31;5094778;27;46145;-64
2023/11/26 09:42:23;;;;;;;;;27.25;23.25;;;;;7.10;70.72;101616.41;5098382;27;45562;-64
2023/11/26 09:44:49;;;;;;;;;20.75;16.75;;;;;7.01;70.35;101601.34;5100902;27;45245;-64
2023/11/26 09:47:15;;;;;;;;;29.25;28.50;;;;;7.06;70.52;101609.31;5097798;27;45305;-64
2023/11/26 09:49:41;;;;;;;;;33.75;30.00;;;;;7.23;70.49;101630.47;5099652;27;46623;-64
2023/11/26 09:52:06;;;;;;;;;31.00;24.25;;;;;7.18;70.33;101619.91;5100807;27;45329;-64
2023/11/26 09:54:32;;;;;;;;;32.75;31.75;;;;;7.12;70.67;101611.94;5093307;27;45326;-64
2023/11/26 09:56:59;;;;;;;;;36.75;30.25;;;;;7.19;70.81;101615.47;5098693;27;45628;-64
2023/11/26 09:59:32;;;;;;;;;32.75;25.00;;;;;7.15;70.75;101611.03;5098101;27;47140;-63
2023/11/26 10:02:02;;;;;;;;;27.00;24.75;;;;;7.16;70.55;101607.50;5098790;27;45494;-63
2023/11/26 10:04:28;;;;;;;;;27.25;24.50;;;;;7.16;70.47;101600.41;5100293;27;45376;-64
2023/11/26 10:06:55;;;;;;;;;31.00;26.50;;;;;7.21;70.76;101597.75;5099192;27;45520;-64
2023/11/26 10:09:21;;;;;;;;;20.25;18.50;;;;;7.23;70.78;101593.31;5099358;27;45480;-64
2023/11/26 10:11:47;;;;;;;;;33.00;24.75;;;;;7.24;70.93;101600.38;5098498;27;45318;-64
2023/11/26 10:14:20;;;;;;;;;15.50;10.25;;;;;7.26;70.71;101603.91;5100838;27;45348;-64
2023/11/26 10:16:45;;;;;;;;;25.75;23.50;;;;;7.16;70.96;101565.91;5098084;27;45536;-64
2023/11/26 10:19:23;;;;;;;;;31.50;28.75;;;;;7.25;71.41;101570.31;5096372;27;45384;-65
2023/11/26 10:21:57;;;;;;;;;25.50;24.25;;;;;7.31;71.13;101578.22;5097944;27;45407;-64
2023/11/26 10:24:24;;;;;;;;;28.50;27.25;;;;;7.41;70.96;101582.56;5095505;27;45797;-64
2023/11/26 10:26:52;;;;;;;;;24.25;22.25;;;;;7.44;71.12;101573.72;5099775;27;45385;-65
2023/11/26 10:29:20;;;;;;;;;27.50;25.75;;;;;7.49;71.08;101571.91;5099649;27;46283;-65
2023/11/26 10:31:57;;;;;;;;;25.25;24.50;;;;;7.58;70.99;101581.59;5098525;27;45698;-65
2023/11/26 10:34:22;;;;;;;;;26.00;22.75;;;;;7.54;70.93;101570.09;5100116;27;45462;-65
2023/11/26 10:36:47;;;;;;;;;29.25;26.75;;;;;7.56;70.60;101563.00;5099160;27;45457;-65
2023/11/26 10:39:14;;;;;;;;;23.50;21.50;;;;;7.58;70.71;101563.91;5099115;27;68930;-65
2023/11/26 10:41:40;;;;;;;;;21.50;21.25;;;;;7.52;70.71;101557.75;5100127;27;45894;-65
2023/11/26 10:44:07;;;;;;;;;32.50;29.50;;;;;7.43;70.85;101540.06;5100356;27;45483;-65
2023/11/26 10:46:35;;;;;;;;;22.75;22.75;;;;;7.59;71.11;101560.31;5098868;27;45468;-65
2023/11/26 10:49:29;;;;;;;;;26.50;22.00;;;;;7.64;70.92;101572.72;5099683;27;46175;-65
2023/11/26 10:52:14;;;;;;;;;25.75;22.50;;;;;7.66;71.08;101574.47;5089607;27;45358;-65
2023/11/26 10:55:10;;;;;;;;;21.00;21.00;;;;;7.74;71.09;101575.28;5099192;27;45484;-65
2023/11/26 10:57:40;;;;;;;;;20.25;19.75;;;;;7.76;70.90;101568.19;5096933;27;45250;-65
2023/11/26 11:00:08;;;;;;;;;20.75;19.25;;;;;7.73;71.01;101564.66;5098449;27;45795;-65
2023/11/26 11:02:36;;;;;;;;;25.00;21.75;;;;;7.83;71.04;101562.81;5097873;27;45385;-65
2023/11/26 11:05:04;;;;;;;;;23.50;19.50;;;;;7.73;71.34;101546.94;5099669;27;45698;-65
2023/11/26 11:07:31;;;;;;;;;26.50;23.00;;;;;7.87;70.93;101560.13;5099603;27;45395;-65
2023/11/26 11:10:09;;;;;;;;;15.50;15.50;;;;;7.96;71.18;101556.50;5097909;27;45453;-65
2023/11/26 11:13:00;;;;;;;;;19.00;17.00;;;;;8.00;70.90;101554.72;5098627;27;45440;-65
2023/11/26 11:15:26;;;;;;;;;16.75;16.75;;;;;7.97;70.71;101545.00;5089298;27;45527;-65
2023/11/26 11:17:51;;;;;;;;;22.75;17.50;;;;;7.93;70.85;101536.13;5099550;27;45323;-65